Time;durP1;ratioP1;P1;durP2;ratioP2;P2;SDS_P1;SDS_P2;PMS_P1;PMS_P2;Temp;Humidity;BMP_temperature;BMP_pressure;BME280_temperature;BME280_humidity;BME280_pressure;Samples;Min_cycle;Max_cycle;Signal;HPM_P1;HPM_P2
2021/06/22 00:01:06;;;;;;;4.83;3.90;;;;;;;;;;5011277;28;20753;-49
2021/06/22 00:03:32;;;;;;;9.07;5.03;;;;;;;;;;5010689;28;20425;-50
2021/06/22 00:05:58;;;;;;;4.60;4.20;;;;;;;;;;5011081;28;20395;-49
2021/06/22 00:08:24;;;;;;;5.00;4.50;;;;;;;;;;5011173;28;20395;-50
2021/06/22 00:10:50;;;;;;;13.23;6.27;;;;;;;;;;5010955;28;20907;-49
2021/06/22 00:13:16;;;;;;;6.30;3.70;;;;;;;;;;5010773;28;20418;-50
2021/06/22 00:15:42;;;;;;;8.93;5.00;;;;;;;;;;5010981;28;20389;-49
2021/06/22 00:18:09;;;;;;;5.40;4.40;;;;;;;;;;5010668;28;20853;-49
2021/06/22 00:20:35;;;;;;;6.17;5.00;;;;;;;;;;5009949;28;20460;-49
2021/06/22 00:23:01;;;;;;;6.40;4.90;;;;;;;;;;5010814;28;20423;-49
2021/06/22 00:25:27;;;;;;;6.17;4.50;;;;;;;;;;5010815;28;20385;-49
2021/06/22 00:27:53;;;;;;;5.10;4.17;;;;;;;;;;5010574;28;20408;-49
2021/06/22 00:30:19;;;;;;;6.13;4.53;;;;;;;;;;5010706;28;20399;-49
2021/06/22 00:32:45;;;;;;;9.40;4.77;;;;;;;;;;5010646;28;20427;-50
2021/06/22 00:35:12;;;;;;;4.50;4.10;;;;;;;;;;5010628;28;20436;-50
2021/06/22 00:37:39;;;;;;;4.43;4.03;;;;;;;;;;5010309;28;20497;-49
2021/06/22 00:40:05;;;;;;;7.83;4.30;;;;;;;;;;5010484;28;20378;-50
2021/06/22 00:42:31;;;;;;;7.73;4.00;;;;;;;;;;5010288;28;20492;-49
2021/06/22 00:44:58;;;;;;;12.07;4.23;;;;;;;;;;5010567;28;21058;-49
2021/06/22 00:47:24;;;;;;;5.43;4.30;;;;;;;;;;5010484;28;20386;-49
2021/06/22 00:49:51;;;;;;;8.93;3.87;;;;;;;;;;5010347;28;20407;-49
2021/06/22 00:52:21;;;;;;;5.70;4.20;;;;;;;;;;5010410;28;20457;-49
2021/06/22 00:54:47;;;;;;;5.40;3.87;;;;;;;;;;5010220;28;20403;-50
2021/06/22 00:57:14;;;;;;;7.50;4.37;;;;;;;;;;5010283;28;20486;-49
2021/06/22 00:59:40;;;;;;;5.33;4.00;;;;;;;;;;5010378;28;20414;-51
2021/06/22 01:02:06;;;;;;;5.40;3.57;;;;;;;;;;5010433;28;20419;-50
2021/06/22 01:04:33;;;;;;;6.73;3.60;;;;;;;;;;5010038;28;20399;-51
2021/06/22 01:06:59;;;;;;;9.30;3.50;;;;;;;;;;5010271;28;20403;-49
2021/06/22 01:09:28;;;;;;;4.37;3.97;;;;;;;;;;5010176;28;20399;-50
2021/06/22 01:11:54;;;;;;;11.57;3.93;;;;;;;;;;5010359;28;20419;-51
2021/06/22 01:14:20;;;;;;;4.67;3.50;;;;;;;;;;5010173;28;20403;-49
2021/06/22 01:16:46;;;;;;;4.67;3.57;;;;;;;;;;5009918;28;20403;-49
2021/06/22 01:19:13;;;;;;;4.10;3.70;;;;;;;;;;5010456;28;20422;-49
2021/06/22 01:21:39;;;;;;;5.43;3.87;;;;;;;;;;5009958;28;20912;-50
2021/06/22 01:24:08;;;;;;;4.37;4.03;;;;;;;;;;5010773;28;20526;-50
2021/06/22 01:26:34;;;;;;;9.60;5.50;;;;;;;;;;5010001;28;20497;-49
2021/06/22 01:29:01;;;;;;;5.40;3.70;;;;;;;;;;5010392;28;20407;-51
2021/06/22 01:31:27;;;;;;;8.40;4.67;;;;;;;;;;5011241;28;20399;-50
2021/06/22 01:33:53;;;;;;;9.13;4.13;;;;;;;;;;5014193;28;20553;-51
2021/06/22 01:36:20;;;;;;;5.17;3.83;;;;;;;;;;5013756;28;21006;-50
2021/06/22 01:38:46;;;;;;;4.70;3.93;;;;;;;;;;5013642;28;20455;-49
2021/06/22 01:41:12;;;;;;;5.83;3.90;;;;;;;;;;5013773;28;20418;-50
2021/06/22 01:43:38;;;;;;;4.90;4.03;;;;;;;;;;5013629;28;20903;-50
2021/06/22 01:46:04;;;;;;;4.13;3.73;;;;;;;;;;5013522;28;20381;-50
2021/06/22 01:48:31;;;;;;;8.70;4.90;;;;;;;;;;5013621;28;20488;-50
2021/06/22 01:50:57;;;;;;;9.43;4.20;;;;;;;;;;5013519;28;20882;-49
2021/06/22 01:53:24;;;;;;;8.93;5.53;;;;;;;;;;5013462;28;21103;-49
2021/06/22 01:55:50;;;;;;;6.50;4.03;;;;;;;;;;5013291;28;20403;-50
2021/06/22 01:58:17;;;;;;;5.07;4.30;;;;;;;;;;5013519;28;20459;-50
2021/06/22 02:00:44;;;;;;;8.97;4.47;;;;;;;;;;5013336;28;20391;-49
2021/06/22 02:03:13;;;;;;;5.43;4.73;;;;;;;;;;5013371;28;20430;-50
2021/06/22 02:05:40;;;;;;;9.07;4.30;;;;;;;;;;5013048;28;20835;-52
2021/06/22 02:08:06;;;;;;;5.70;3.83;;;;;;;;;;5013228;28;20403;-49
2021/06/22 02:10:32;;;;;;;5.63;4.37;;;;;;;;;;5013101;28;20969;-51
2021/06/22 02:12:57;;;;;;;8.70;4.93;;;;;;;;;;5013145;28;20452;-51
2021/06/22 02:15:24;;;;;;;5.07;4.47;;;;;;;;;;5013285;28;20381;-51
2021/06/22 02:17:49;;;;;;;8.37;5.10;;;;;;;;;;5012678;28;20837;-49
2021/06/22 02:20:16;;;;;;;5.63;4.90;;;;;;;;;;5013197;28;20406;-49
2021/06/22 02:22:42;;;;;;;9.73;4.70;;;;;;;;;;5012654;28;20431;-49
2021/06/22 02:25:09;;;;;;;9.03;4.80;;;;;;;;;;5013180;28;20433;-49
2021/06/22 02:27:35;;;;;;;7.20;4.43;;;;;;;;;;5012588;28;20763;-49
2021/06/22 02:30:01;;;;;;;6.67;4.60;;;;;;;;;;5013125;28;20410;-51
2021/06/22 02:32:28;;;;;;;6.23;4.90;;;;;;;;;;5012802;28;20480;-51
2021/06/22 02:34:54;;;;;;;6.60;4.90;;;;;;;;;;5013066;28;20407;-50
2021/06/22 02:37:20;;;;;;;9.47;4.87;;;;;;;;;;5012539;28;20450;-51
2021/06/22 02:39:46;;;;;;;6.10;4.37;;;;;;;;;;5011878;28;20813;-51
2021/06/22 02:42:12;;;;;;;4.67;4.27;;;;;;;;;;5012310;28;20437;-50
2021/06/22 02:44:38;;;;;;;9.37;4.50;;;;;;;;;;5011940;28;20887;-51
2021/06/22 02:47:04;;;;;;;5.50;4.40;;;;;;;;;;5012457;28;20416;-51
2021/06/22 02:49:30;;;;;;;7.80;4.73;;;;;;;;;;5012438;28;20409;-52
2021/06/22 02:51:57;;;;;;;9.63;4.50;;;;;;;;;;5012315;28;20759;-52
2021/06/22 02:54:23;;;;;;;10.00;4.80;;;;;;;;;;5012672;28;20399;-49
2021/06/22 02:56:49;;;;;;;8.40;4.67;;;;;;;;;;5012141;28;20403;-49
2021/06/22 02:59:15;;;;;;;10.93;5.47;;;;;;;;;;5012647;28;20422;-50
2021/06/22 03:01:41;;;;;;;6.70;5.10;;;;;;;;;;5012127;28;20433;-50
2021/06/22 03:04:07;;;;;;;14.27;6.07;;;;;;;;;;5012412;28;20472;-50
2021/06/22 03:06:33;;;;;;;8.73;5.40;;;;;;;;;;4994537;28;20382;-52
2021/06/22 03:08:59;;;;;;;11.17;5.60;;;;;;;;;;5012278;28;20558;-52
2021/06/22 03:11:25;;;;;;;12.40;4.93;;;;;;;;;;5012365;28;20425;-51
2021/06/22 03:13:51;;;;;;;14.63;6.53;;;;;;;;;;5011931;28;20410;-52
2021/06/22 03:16:17;;;;;;;5.97;5.37;;;;;;;;;;5012028;28;20403;-49
2021/06/22 03:18:43;;;;;;;9.60;5.60;;;;;;;;;;5011732;28;21209;-49
2021/06/22 03:21:09;;;;;;;8.70;5.50;;;;;;;;;;5012114;28;20842;-49
2021/06/22 03:23:35;;;;;;;7.57;6.07;;;;;;;;;;5011623;28;20999;-49
2021/06/22 03:26:01;;;;;;;10.60;6.20;;;;;;;;;;5011943;28;20437;-49
2021/06/22 03:28:27;;;;;;;13.40;6.60;;;;;;;;;;5011874;28;20761;-49
2021/06/22 03:30:53;;;;;;;11.37;7.20;;;;;;;;;;5011824;28;20403;-50
2021/06/22 03:33:19;;;;;;;7.77;6.27;;;;;;;;;;5011605;28;20423;-49
2021/06/22 03:35:45;;;;;;;10.73;6.57;;;;;;;;;;5011741;28;20410;-49
2021/06/22 03:38:11;;;;;;;17.30;7.23;;;;;;;;;;5011475;28;20554;-50
2021/06/22 03:40:37;;;;;;;16.23;7.90;;;;;;;;;;5011517;28;20815;-50
2021/06/22 03:43:05;;;;;;;14.77;7.90;;;;;;;;;;5011477;28;20434;-49
2021/06/22 03:45:31;;;;;;;10.50;7.30;;;;;;;;;;5011493;28;20398;-49
2021/06/22 03:47:57;;;;;;;11.17;7.10;;;;;;;;;;5011182;28;20411;-50
2021/06/22 03:50:23;;;;;;;18.50;6.97;;;;;;;;;;5011575;28;20456;-51
2021/06/22 03:52:49;;;;;;;11.37;7.40;;;;;;;;;;4993270;28;20829;-53
2021/06/22 03:55:48;;;;;;;16.03;7.43;;;;;;;;;;5011244;28;20451;-49
2021/06/22 03:58:07;;;;;;;14.93;7.60;;;;;;;;;;5007057;28;20551;-49
2021/06/22 04:00:33;;;;;;;12.20;7.77;;;;;;;;;;5011390;28;20407;-52
2021/06/22 04:03:00;;;;;;;14.50;8.53;;;;;;;;;;5011197;28;21016;-50
2021/06/22 04:05:29;;;;;;;20.50;9.13;;;;;;;;;;5011283;28;20395;-49
2021/06/22 04:07:56;;;;;;;13.33;7.57;;;;;;;;;;5011119;28;20402;-49
2021/06/22 04:10:22;;;;;;;13.10;8.33;;;;;;;;;;5011136;28;20378;-51
2021/06/22 04:12:48;;;;;;;11.07;7.60;;;;;;;;;;5010751;28;20398;-50
2021/06/22 04:15:14;;;;;;;15.93;8.57;;;;;;;;;;5011181;28;20438;-50
2021/06/22 04:17:40;;;;;;;12.43;8.60;;;;;;;;;;5010586;28;20446;-50
2021/06/22 04:20:06;;;;;;;16.20;9.10;;;;;;;;;;5010890;28;20490;-52
2021/06/22 04:22:32;;;;;;;16.07;9.10;;;;;;;;;;5010696;28;20423;-49
2021/06/22 04:24:58;;;;;;;12.10;8.93;;;;;;;;;;5010841;28;20410;-50
2021/06/22 04:27:24;;;;;;;9.27;7.83;;;;;;;;;;5010690;28;20403;-51
2021/06/22 04:29:50;;;;;;;10.53;8.63;;;;;;;;;;5010564;28;20463;-51
2021/06/22 04:32:16;;;;;;;13.83;9.50;;;;;;;;;;5010665;28;20965;-51
2021/06/22 04:34:42;;;;;;;12.87;7.80;;;;;;;;;;5010481;28;20404;-51
2021/06/22 04:37:08;;;;;;;10.30;7.80;;;;;;;;;;5010569;28;20378;-49
2021/06/22 04:39:34;;;;;;;12.37;8.00;;;;;;;;;;5010455;28;20410;-49
2021/06/22 04:42:00;;;;;;;12.07;7.53;;;;;;;;;;5010823;28;20500;-49
2021/06/22 04:44:26;;;;;;;14.37;9.00;;;;;;;;;;5010829;28;20769;-52
2021/06/22 04:46:52;;;;;;;13.20;8.70;;;;;;;;;;5010672;28;20411;-49
2021/06/22 04:49:18;;;;;;;31.03;12.83;;;;;;;;;;5010775;28;20387;-50
2021/06/22 04:51:44;;;;;;;12.90;10.07;;;;;;;;;;5010542;28;20899;-49
2021/06/22 04:54:11;;;;;;;19.13;10.50;;;;;;;;;;5010635;28;20427;-50
2021/06/22 04:56:37;;;;;;;19.37;10.30;;;;;;;;;;5010166;28;20402;-49
2021/06/22 04:59:03;;;;;;;18.87;11.70;;;;;;;;;;5010771;28;20458;-49
2021/06/22 05:01:29;;;;;;;18.83;12.53;;;;;;;;;;5010277;28;20432;-55
2021/06/22 05:03:55;;;;;;;14.20;10.27;;;;;;;;;;5010532;28;20395;-49
2021/06/22 05:06:21;;;;;;;17.03;11.50;;;;;;;;;;5013007;28;20409;-49
2021/06/22 05:08:47;;;;;;;15.30;10.93;;;;;;;;;;5016831;28;20422;-49
2021/06/22 05:11:13;;;;;;;15.87;12.10;;;;;;;;;;5016745;28;20411;-49
2021/06/22 05:13:40;;;;;;;24.13;14.10;;;;;;;;;;5016887;28;20457;-49
2021/06/22 05:16:06;;;;;;;17.87;13.13;;;;;;;;;;5016526;28;20766;-51
2021/06/22 05:18:33;;;;;;;24.33;14.60;;;;;;;;;;5016590;28;20438;-52
2021/06/22 05:20:59;;;;;;;20.27;14.90;;;;;;;;;;5016736;28;20452;-49
2021/06/22 05:23:25;;;;;;;23.43;14.30;;;;;;;;;;5016627;28;20498;-50
2021/06/22 05:25:51;;;;;;;24.30;14.63;;;;;;;;;;5016351;28;20862;-50
2021/06/22 05:28:17;;;;;;;29.53;16.40;;;;;;;;;;5016651;28;20418;-52
2021/06/22 05:30:43;;;;;;;22.97;15.43;;;;;;;;;;5016448;28;20381;-50
2021/06/22 05:33:09;;;;;;;25.03;14.20;;;;;;;;;;5016622;28;20462;-50
2021/06/22 05:35:35;;;;;;;19.63;14.03;;;;;;;;;;5016398;28;20501;-49
2021/06/22 05:38:01;;;;;;;22.70;14.30;;;;;;;;;;5016441;28;20488;-49
2021/06/22 05:40:27;;;;;;;21.63;14.80;;;;;;;;;;5016519;28;20409;-50
2021/06/22 05:42:53;;;;;;;25.10;17.50;;;;;;;;;;5016365;28;20509;-50
2021/06/22 05:45:19;;;;;;;24.10;16.50;;;;;;;;;;5016649;28;20403;-49
2021/06/22 05:47:46;;;;;;;23.70;17.03;;;;;;;;;;5016352;28;20512;-49
2021/06/22 05:50:12;;;;;;;26.20;17.40;;;;;;;;;;5016510;28;20416;-50
2021/06/22 05:52:38;;;;;;;22.73;16.00;;;;;;;;;;5015995;28;20446;-50
2021/06/22 05:55:16;;;;;;;27.23;16.90;;;;;;;;;;5016506;28;20411;-50
2021/06/22 05:57:43;;;;;;;19.50;13.43;;;;;;;;;;5016129;28;20459;-50
2021/06/22 06:00:11;;;;;;;17.97;12.57;;;;;;;;;;5016579;28;20402;-50
2021/06/22 06:02:37;;;;;;;17.50;11.27;;;;;;;;;;5016034;28;20452;-50
2021/06/22 06:05:03;;;;;;;18.03;11.23;;;;;;;;;;5016393;28;20403;-50
2021/06/22 06:07:30;;;;;;;14.47;9.30;;;;;;;;;;5016053;28;20381;-49
2021/06/22 06:09:56;;;;;;;14.77;10.20;;;;;;;;;;5016434;28;20377;-50
2021/06/22 06:12:22;;;;;;;13.90;9.90;;;;;;;;;;5016233;28;20400;-49
2021/06/22 06:14:48;;;;;;;14.97;10.20;;;;;;;;;;5016244;28;20743;-50
2021/06/22 06:17:15;;;;;;;12.83;10.20;;;;;;;;;;5015220;28;20403;-50
2021/06/22 06:19:41;;;;;;;14.10;9.23;;;;;;;;;;5013035;28;20377;-52
2021/06/22 06:22:07;;;;;;;13.13;10.47;;;;;;;;;;5013056;28;21058;-49
2021/06/22 06:24:33;;;;;;;14.70;9.60;;;;;;;;;;5013025;28;20812;-49
2021/06/22 06:27:13;;;;;;;11.77;9.73;;;;;;;;;;5012897;28;20395;-49
2021/06/22 06:32:14;;;;;;;14.40;10.50;;;;;;;;;;5012727;28;20420;-51
2021/06/22 06:34:40;;;;;;;20.43;10.30;;;;;;;;;;5012806;28;20880;-51
2021/06/22 06:37:06;;;;;;;11.80;9.20;;;;;;;;;;5012607;28;20400;-50
2021/06/22 06:39:32;;;;;;;11.00;9.83;;;;;;;;;;5012776;28;20410;-51
2021/06/22 06:41:58;;;;;;;17.90;9.60;;;;;;;;;;5012702;28;20415;-52
2021/06/22 06:44:24;;;;;;;21.60;10.17;;;;;;;;;;5012875;28;20897;-51
2021/06/22 06:46:50;;;;;;;11.50;9.20;;;;;;;;;;5012262;28;20403;-49
2021/06/22 06:49:16;;;;;;;10.23;8.57;;;;;;;;;;4995265;28;20385;-49
2021/06/22 06:51:42;;;;;;;10.77;9.10;;;;;;;;;;5012687;28;20956;-49
2021/06/22 06:54:08;;;;;;;16.83;10.83;;;;;;;;;;5012718;28;20426;-49
2021/06/22 06:56:34;;;;;;;14.03;9.60;;;;;;;;;;5012563;28;20388;-49
2021/06/22 06:58:59;;;;;;;10.43;9.43;;;;;;;;;;5012656;28;20429;-49
2021/06/22 07:01:25;;;;;;;14.27;9.83;;;;;;;;;;5012658;28;20370;-50
2021/06/22 07:03:53;;;;;;;17.37;10.20;;;;;;;;;;5012235;28;20949;-50
2021/06/22 07:06:19;;;;;;;12.70;9.77;;;;;;;;;;5012364;28;20712;-51
2021/06/22 07:08:45;;;;;;;18.40;9.87;;;;;;;;;;5012183;28;20450;-52
2021/06/22 07:11:11;;;;;;;9.90;8.87;;;;;;;;;;5012477;28;20434;-50
2021/06/22 07:13:37;;;;;;;12.50;9.47;;;;;;;;;;5011882;28;20407;-52
2021/06/22 07:16:03;;;;;;;11.70;8.40;;;;;;;;;;5011923;28;20892;-54
2021/06/22 07:18:31;;;;;;;9.80;7.83;;;;;;;;;;5011963;28;20429;-51
2021/06/22 07:20:57;;;;;;;12.90;8.10;;;;;;;;;;5012168;28;20374;-52
2021/06/22 07:23:23;;;;;;;11.33;7.37;;;;;;;;;;5012617;28;20394;-51
2021/06/22 07:25:49;;;;;;;8.40;7.60;;;;;;;;;;4994187;28;20385;-52
2021/06/22 07:28:15;;;;;;;8.90;7.30;;;;;;;;;;5011761;28;20550;-51
2021/06/22 07:30:41;;;;;;;10.20;7.87;;;;;;;;;;5011189;28;20468;-51
2021/06/22 07:33:07;;;;;;;9.97;7.30;;;;;;;;;;5011663;28;20505;-51
2021/06/22 07:35:33;;;;;;;8.97;6.70;;;;;;;;;;5011695;28;20385;-50
2021/06/22 07:38:00;;;;;;;10.20;6.70;;;;;;;;;;5011529;28;20448;-51
2021/06/22 07:40:26;;;;;;;9.73;5.93;;;;;;;;;;5011754;28;20493;-51
2021/06/22 07:42:53;;;;;;;8.37;6.57;;;;;;;;;;5011413;28;20458;-51
2021/06/22 07:45:19;;;;;;;8.17;5.70;;;;;;;;;;5011485;28;20377;-51
2021/06/22 07:47:45;;;;;;;8.23;6.20;;;;;;;;;;5005655;28;20416;-52
2021/06/22 07:50:12;;;;;;;14.60;7.10;;;;;;;;;;4991091;28;20408;-52
2021/06/22 07:52:38;;;;;;;8.20;7.20;;;;;;;;;;4991421;28;20931;-51
2021/06/22 07:55:06;;;;;;;9.50;6.30;;;;;;;;;;4991741;28;20391;-51
2021/06/22 07:57:32;;;;;;;13.60;8.13;;;;;;;;;;4991438;28;20433;-51
2021/06/22 07:59:58;;;;;;;7.30;5.53;;;;;;;;;;4991626;28;20408;-51
2021/06/22 08:02:24;;;;;;;6.33;5.73;;;;;;;;;;4991500;28;20486;-51
2021/06/22 08:04:50;;;;;;;8.80;6.10;;;;;;;;;;4991427;28;20396;-52
2021/06/22 08:07:16;;;;;;;10.03;6.07;;;;;;;;;;4991581;28;20400;-51
2021/06/22 08:09:42;;;;;;;8.17;5.80;;;;;;;;;;4991372;28;20374;-51
2021/06/22 08:12:08;;;;;;;6.93;5.53;;;;;;;;;;4991585;28;20906;-51
2021/06/22 08:14:34;;;;;;;11.13;6.77;;;;;;;;;;4991139;28;20371;-51
2021/06/22 08:17:00;;;;;;;7.53;6.33;;;;;;;;;;4990420;28;20408;-51
2021/06/22 08:19:26;;;;;;;7.57;6.70;;;;;;;;;;4991321;28;21174;-51
2021/06/22 08:21:52;;;;;;;8.63;6.00;;;;;;;;;;4987744;28;20411;-51
2021/06/22 08:24:18;;;;;;;7.43;5.97;;;;;;;;;;4990482;28;20412;-51
2021/06/22 08:26:44;;;;;;;8.07;5.80;;;;;;;;;;4990835;28;20429;-51
2021/06/22 08:29:10;;;;;;;9.17;6.43;;;;;;;;;;4973933;28;21277;-51
2021/06/22 08:31:36;;;;;;;11.40;5.83;;;;;;;;;;4990908;28;20501;-51
2021/06/22 08:34:02;;;;;;;9.30;6.00;;;;;;;;;;4991213;28;20411;-50
2021/06/22 08:36:28;;;;;;;7.50;6.03;;;;;;;;;;4990931;28;20482;-50
2021/06/22 08:38:54;;;;;;;8.70;6.77;;;;;;;;;;4991039;28;20463;-50
2021/06/22 08:41:21;;;;;;;12.07;6.37;;;;;;;;;;4990206;28;20371;-51
2021/06/22 08:43:50;;;;;;;7.93;6.33;;;;;;;;;;4991101;28;20410;-51
2021/06/22 08:46:16;;;;;;;9.33;6.40;;;;;;;;;;4991361;28;20390;-50
2021/06/22 08:48:42;;;;;;;7.23;5.87;;;;;;;;;;4991104;28;20408;-50
2021/06/22 08:51:08;;;;;;;14.30;6.60;;;;;;;;;;4991562;28;20792;-51
2021/06/22 08:53:34;;;;;;;10.13;6.17;;;;;;;;;;4990411;28;20469;-51
2021/06/22 08:56:00;;;;;;;8.10;7.13;;;;;;;;;;4990722;28;20815;-51
2021/06/22 08:58:26;;;;;;;6.83;5.70;;;;;;;;;;4990679;28;20460;-50
2021/06/22 09:00:54;;;;;;;8.10;6.30;;;;;;;;;;4990709;28;20491;-51
2021/06/22 09:03:25;;;;;;;8.33;5.90;;;;;;;;;;4990713;28;20424;-50
2021/06/22 09:05:54;;;;;;;14.30;6.57;;;;;;;;;;4990572;28;20371;-51
2021/06/22 09:08:24;;;;;;;10.27;6.20;;;;;;;;;;4990903;28;20810;-52
2021/06/22 09:10:52;;;;;;;10.30;6.40;;;;;;;;;;4990638;28;20404;-51
2021/06/22 09:13:22;;;;;;;7.13;6.07;;;;;;;;;;4990492;28;20406;-51
2021/06/22 09:15:49;;;;;;;7.57;6.07;;;;;;;;;;4990571;28;20897;-51
2021/06/22 09:18:30;;;;;;;14.13;6.93;;;;;;;;;;4989241;28;20487;-51
2021/06/22 09:21:01;;;;;;;8.23;6.40;;;;;;;;;;4990392;28;20378;-51
2021/06/22 09:23:29;;;;;;;7.77;6.30;;;;;;;;;;4990556;28;20401;-51
2021/06/22 09:25:56;;;;;;;9.40;5.90;;;;;;;;;;4990202;28;20457;-51
2021/06/22 09:28:23;;;;;;;10.07;5.90;;;;;;;;;;4990617;28;20810;-52
2021/06/22 09:30:58;;;;;;;8.30;6.60;;;;;;;;;;4990246;28;20748;-52
2021/06/22 09:33:45;;;;;;;8.30;6.10;;;;;;;;;;4990715;28;20744;-51
2021/06/22 09:36:20;;;;;;;13.90;6.10;;;;;;;;;;4990053;28;20408;-51
2021/06/22 09:38:53;;;;;;;6.43;5.87;;;;;;;;;;4990256;28;21045;-51
2021/06/22 09:41:22;;;;;;;8.70;5.90;;;;;;;;;;4990432;28;20386;-52
2021/06/22 09:43:50;;;;;;;7.27;5.23;;;;;;;;;;4990234;28;20851;-51
2021/06/22 09:46:18;;;;;;;9.03;5.70;;;;;;;;;;4990622;28;20478;-51
2021/06/22 09:48:45;;;;;;;6.10;5.50;;;;;;;;;;4990377;28;20410;-50
2021/06/22 09:51:11;;;;;;;10.00;5.70;;;;;;;;;;4990361;28;20408;-51
2021/06/22 09:53:37;;;;;;;12.80;5.90;;;;;;;;;;4993008;28;20468;-50
2021/06/22 09:56:05;;;;;;;6.37;5.57;;;;;;;;;;4993847;28;20891;-51
2021/06/22 09:58:40;;;;;;;7.90;7.20;;;;;;;;;;4992527;28;20513;-51
2021/06/22 10:01:23;;;;;;;8.03;5.93;;;;;;;;;;4993690;28;20892;-52
2021/06/22 10:03:49;;;;;;;5.37;4.70;;;;;;;;;;4993848;28;20407;-50
2021/06/22 10:06:15;;;;;;;7.40;4.97;;;;;;;;;;4993702;28;20446;-51
2021/06/22 10:08:50;;;;;;;6.17;4.47;;;;;;;;;;4993559;28;20411;-51
2021/06/22 10:11:28;;;;;;;6.37;4.57;;;;;;;;;;4993636;28;20927;-51
2021/06/22 10:13:54;;;;;;;6.47;4.70;;;;;;;;;;4993508;28;20430;-51
2021/06/22 10:16:21;;;;;;;5.10;4.60;;;;;;;;;;4993551;28;20447;-51
2021/06/22 10:18:47;;;;;;;5.33;4.23;;;;;;;;;;4993346;28;20456;-52
2021/06/22 10:21:14;;;;;;;6.13;5.10;;;;;;;;;;4993732;28;20392;-52
2021/06/22 10:23:40;;;;;;;6.13;4.90;;;;;;;;;;4975578;28;20419;-51
2021/06/22 10:26:06;;;;;;;7.40;4.70;;;;;;;;;;4993324;28;20412;-51
2021/06/22 10:28:34;;;;;;;7.10;6.03;;;;;;;;;;4993219;28;20458;-51
2021/06/22 10:31:00;;;;;;;6.57;5.27;;;;;;;;;;4993562;28;20950;-51
2021/06/22 10:33:26;;;;;;;6.50;4.70;;;;;;;;;;4993178;28;20497;-52
2021/06/22 10:35:52;;;;;;;8.30;5.83;;;;;;;;;;4971154;28;20433;-51
2021/06/22 10:38:21;;;;;;;6.50;5.80;;;;;;;;;;4988468;28;20458;-51
2021/06/22 10:40:52;;;;;;;8.33;5.77;;;;;;;;;;4992963;28;20824;-52
2021/06/22 10:43:32;;;;;;;9.00;5.43;;;;;;;;;;4992983;28;20435;-51
2021/06/22 10:46:03;;;;;;;8.77;5.77;;;;;;;;;;4992849;28;20405;-51
2021/06/22 10:48:39;;;;;;;7.57;5.00;;;;;;;;;;4993109;28;20408;-51
2021/06/22 10:51:25;;;;;;;10.50;5.00;;;;;;;;;;4992891;28;20411;-51
2021/06/22 10:53:51;;;;;;;8.90;6.57;;;;;;;;;;4992754;28;20493;-51
2021/06/22 10:56:18;;;;;;;10.77;6.07;;;;;;;;;;4992764;28;20408;-51
2021/06/22 10:59:03;;;;;;;12.60;5.70;;;;;;;;;;4974491;28;20455;-51
2021/06/22 11:01:29;;;;;;;8.97;5.47;;;;;;;;;;4992297;28;20403;-51
2021/06/22 11:04:05;;;;;;;12.80;5.20;;;;;;;;;;4991750;28;20396;-52
2021/06/22 11:06:31;;;;;;;9.87;6.00;;;;;;;;;;4992321;28;20919;-53
2021/06/22 11:09:15;;;;;;;6.07;4.80;;;;;;;;;;4992758;28;20400;-51
2021/06/22 11:11:40;;;;;;;6.30;5.70;;;;;;;;;;4992202;28;20916;-51
2021/06/22 11:14:06;;;;;;;7.40;5.47;;;;;;;;;;4992632;28;20427;-51
2021/06/22 11:16:33;;;;;;;8.10;6.03;;;;;;;;;;4974706;28;20495;-51
2021/06/22 11:19:01;;;;;;;7.67;5.87;;;;;;;;;;4992357;28;20452;-52
2021/06/22 11:21:31;;;;;;;8.97;5.93;;;;;;;;;;4992543;28;20396;-51
2021/06/22 11:24:04;;;;;;;9.20;6.97;;;;;;;;;;4992140;28;20400;-51
2021/06/22 11:26:39;;;;;;;9.90;6.23;;;;;;;;;;4992261;28;20404;-51
2021/06/22 11:29:05;;;;;;;10.50;6.10;;;;;;;;;;4992223;28;20411;-50
2021/06/22 11:31:37;;;;;;;12.27;8.13;;;;;;;;;;4992145;28;20375;-51
2021/06/22 11:34:08;;;;;;;9.47;5.87;;;;;;;;;;4992144;28;20412;-51
2021/06/22 11:36:38;;;;;;;9.30;5.23;;;;;;;;;;4991860;28;20404;-51
2021/06/22 11:39:08;;;;;;;6.20;5.20;;;;;;;;;;4992062;28;20488;-51
2021/06/22 11:41:34;;;;;;;10.93;5.30;;;;;;;;;;4991741;28;20420;-51
2021/06/22 11:44:09;;;;;;;10.20;5.43;;;;;;;;;;4991867;28;20438;-51
2021/06/22 11:46:36;;;;;;;5.47;4.90;;;;;;;;;;4991734;28;20539;-51
2021/06/22 11:49:02;;;;;;;6.70;5.37;;;;;;;;;;4991864;28;20408;-50
2021/06/22 11:51:47;;;;;;;6.70;5.27;;;;;;;;;;4991923;28;20480;-52
2021/06/22 11:54:33;;;;;;;6.60;5.20;;;;;;;;;;4991572;28;20424;-51
2021/06/22 11:56:59;;;;;;;7.17;5.50;;;;;;;;;;4990198;28;20499;-52
2021/06/22 11:59:25;;;;;;;8.83;5.53;;;;;;;;;;4991601;28;20459;-53
2021/06/22 12:01:51;;;;;;;11.43;5.83;;;;;;;;;;4991465;28;20428;-51
2021/06/22 12:04:19;;;;;;;6.87;5.00;;;;;;;;;;4991605;28;20427;-52
2021/06/22 12:06:45;;;;;;;7.90;5.03;;;;;;;;;;4990034;28;20410;-50
2021/06/22 12:09:21;;;;;;;14.53;6.03;;;;;;;;;;4991346;28;20404;-51
2021/06/22 12:11:47;;;;;;;7.07;5.17;;;;;;;;;;4991119;28;20416;-51
2021/06/22 12:14:13;;;;;;;6.70;5.40;;;;;;;;;;4991432;28;20403;-51
2021/06/22 12:16:43;;;;;;;7.90;5.80;;;;;;;;;;4990752;28;20486;-52
2021/06/22 12:19:14;;;;;;;5.93;5.33;;;;;;;;;;4991521;28;20468;-52
2021/06/22 12:21:40;;;;;;;6.10;5.07;;;;;;;;;;4991186;28;20420;-52
2021/06/22 12:24:10;;;;;;;6.67;5.20;;;;;;;;;;4991162;28;20455;-53
2021/06/22 12:26:38;;;;;;;6.03;5.47;;;;;;;;;;4990777;28;20487;-51
2021/06/22 12:29:15;;;;;;;7.07;6.17;;;;;;;;;;4991498;28;20412;-53
2021/06/22 12:31:48;;;;;;;6.50;5.30;;;;;;;;;;4991000;28;20434;-51
2021/06/22 12:34:14;;;;;;;8.03;6.43;;;;;;;;;;4991226;28;20412;-50
2021/06/22 12:36:40;;;;;;;6.43;5.83;;;;;;;;;;4990746;28;20412;-50
2021/06/22 12:39:06;;;;;;;7.10;6.40;;;;;;;;;;4991092;28;20530;-50
2021/06/22 12:41:32;;;;;;;7.80;6.00;;;;;;;;;;4990807;28;20401;-50
2021/06/22 12:44:01;;;;;;;9.87;5.93;;;;;;;;;;4991167;28;20888;-51
2021/06/22 12:46:28;;;;;;;7.43;6.77;;;;;;;;;;4991310;28;20431;-52
2021/06/22 12:48:58;;;;;;;11.60;6.20;;;;;;;;;;4991013;28;20381;-50
2021/06/22 12:51:24;;;;;;;15.30;5.93;;;;;;;;;;4991288;28;20404;-50
2021/06/22 12:53:50;;;;;;;7.30;6.17;;;;;;;;;;4990576;28;20518;-50
2021/06/22 12:56:18;;;;;;;6.00;5.50;;;;;;;;;;4990820;28;20908;-50
2021/06/22 12:58:52;;;;;;;10.30;6.43;;;;;;;;;;4990619;28;20963;-50
2021/06/22 13:01:28;;;;;;;9.93;5.60;;;;;;;;;;4973267;28;20470;-51
2021/06/22 13:03:54;;;;;;;10.90;6.00;;;;;;;;;;4990464;28;20785;-51
2021/06/22 13:06:27;;;;;;;8.60;6.70;;;;;;;;;;4990935;28;20466;-50
2021/06/22 13:09:01;;;;;;;9.37;6.10;;;;;;;;;;4990611;28;20414;-52
2021/06/22 13:11:28;;;;;;;8.47;5.90;;;;;;;;;;4990930;28;20412;-50
2021/06/22 13:14:05;;;;;;;8.13;5.93;;;;;;;;;;4990434;28;20423;-51
2021/06/22 13:16:31;;;;;;;13.43;6.17;;;;;;;;;;4990347;28;20478;-53
2021/06/22 13:19:01;;;;;;;12.30;6.07;;;;;;;;;;4990579;28;20517;-50
2021/06/22 13:21:44;;;;;;;7.63;5.93;;;;;;;;;;4990600;28;20977;-51
2021/06/22 13:24:11;;;;;;;7.00;5.23;;;;;;;;;;4991017;28;20436;-51
2021/06/22 13:26:41;;;;;;;5.47;5.07;;;;;;;;;;4990248;28;20378;-51
2021/06/22 13:29:07;;;;;;;6.93;5.97;;;;;;;;;;4994416;28;20507;-51
2021/06/22 13:31:33;;;;;;;8.80;6.80;;;;;;;;;;4994164;28;20432;-50
2021/06/22 13:34:09;;;;;;;9.53;6.50;;;;;;;;;;4994530;28;20431;-51
2021/06/22 13:36:35;;;;;;;6.10;5.27;;;;;;;;;;4994013;28;20911;-52
2021/06/22 13:39:11;;;;;;;7.00;6.10;;;;;;;;;;4994338;28;20444;-52
2021/06/22 13:41:48;;;;;;;9.27;5.90;;;;;;;;;;4993981;28;20756;-50
2021/06/22 13:44:14;;;;;;;9.27;5.67;;;;;;;;;;4994646;28;20457;-50
2021/06/22 13:46:40;;;;;;;6.73;5.60;;;;;;;;;;4993873;28;20404;-50
2021/06/22 13:49:06;;;;;;;10.00;6.10;;;;;;;;;;4994235;28;20400;-51
2021/06/22 13:51:33;;;;;;;7.30;5.60;;;;;;;;;;4993840;28;20419;-51
2021/06/22 13:54:09;;;;;;;8.87;5.70;;;;;;;;;;4993967;28;20426;-51
2021/06/22 13:56:36;;;;;;;9.47;6.10;;;;;;;;;;4993813;28;20482;-51
2021/06/22 13:59:02;;;;;;;7.73;6.07;;;;;;;;;;4993953;28;20819;-51
2021/06/22 14:01:28;;;;;;;9.03;5.60;;;;;;;;;;4993791;28;21087;-52
2021/06/22 14:04:01;;;;;;;7.40;5.93;;;;;;;;;;4993788;28;20411;-52
2021/06/22 14:06:27;;;;;;;11.57;6.40;;;;;;;;;;4993502;28;20401;-51
2021/06/22 14:08:54;;;;;;;10.00;5.50;;;;;;;;;;4993740;28;20408;-50
2021/06/22 14:11:20;;;;;;;9.03;5.80;;;;;;;;;;4994056;28;20428;-50
2021/06/22 14:13:49;;;;;;;8.53;5.57;;;;;;;;;;4993654;28;20419;-51
2021/06/22 14:16:15;;;;;;;6.73;5.60;;;;;;;;;;4993648;28;20503;-51
2021/06/22 14:18:41;;;;;;;6.47;5.80;;;;;;;;;;4993379;28;20452;-50
2021/06/22 14:21:07;;;;;;;9.57;5.90;;;;;;;;;;4993521;28;20381;-50
2021/06/22 14:23:33;;;;;;;9.50;5.63;;;;;;;;;;4992138;28;20431;-50
2021/06/22 14:25:59;;;;;;;8.40;6.20;;;;;;;;;;4992279;28;20400;-51
2021/06/22 14:28:28;;;;;;;11.33;6.47;;;;;;;;;;4993472;28;20374;-51
2021/06/22 14:30:56;;;;;;;8.47;5.47;;;;;;;;;;4992388;28;20400;-50
2021/06/22 14:33:22;;;;;;;8.67;6.47;;;;;;;;;;4993153;28;20490;-51
2021/06/22 14:35:48;;;;;;;8.60;5.97;;;;;;;;;;4993206;28;20412;-50
2021/06/22 14:38:14;;;;;;;8.80;5.90;;;;;;;;;;4992595;28;20973;-51
2021/06/22 14:40:41;;;;;;;7.13;5.80;;;;;;;;;;4992648;28;20404;-51